Flugwetter

[source: ADDS]
METAR
LOWL 232250Z AUTO 24003KT 9999 NSC 09/07 Q1017 =
TAF LOWL 232315Z 2400/2424 27003KT 9999 SCT070 TX21/2415Z TN08/2403Z PROB30 TEMPO 2404/2406 1200 BCFG
TAF
TAF LOWL 232315Z 2400/2424 27003KT 9999 SCT070 TX21/2415Z TN08/2403Z PROB30 TEMPO 2404/2406 1200 BCFG =